Date,TemperatureHighF,TemperatureAvgF,TemperatureLowF,DewpointHighF,DewpointAvgF,DewpointLowF,HumidityHigh,HumidityAvg,HumidityLow,PressureMaxIn,PressureMinIn,WindSpeedMaxMPH,WindSpeedAvgMPH,GustSpeedMaxMPH,PrecipitationSumIn
2012-1-1,45.5,36.8,28.7,40.0,32.2,23.4,91,84,67,29.97,29.52,27,7,39,0.08
2012-1-2,28.8,24.8,22.4,26.8,22.3,18.8,98,90,85,30.27,29.95,19,5,22,0.39
2012-1-3,26.7,21.7,13.2,20.7,16.1,9.5,92,79,68,30.38,30.12,14,3,16,0.00
2012-1-4,38.6,29.2,20.6,29.7,21.8,13.8,82,74,59,30.15,29.89,13,2,16,0.00
2012-1-5,46.2,35.2,21.8,35.8,28.5,19.6,92,77,62,30.01,29.73,13,2,19,0.00
2012-1-6,53.7,46.6,34.7,40.4,35.6,31.8,89,66,57,29.73,29.65,13,3,19,0.00
2012-1-9,40.1,39.0,38.7,29.6,29.5,29.3,69,68,66,29.98,29.97,8,2,8,0.00
2012-1-11,47.8,43.5,27.2,38.6,36.1,25.2,92,76,63,29.69,29.44,6,0,8,0.01
2012-1-12,41.5,32.9,18.2,38.8,29.9,15.2,94,89,84,29.45,29.32,21,3,23,0.09
2012-1-13,25.3,21.3,18.9,23.6,18.7,16.2,93,89,86,30.02,29.36,23,6,28,0.29
2012-1-14,22.2,16.0,2.8,16.4,11.6,-0.6,87,82,72,30.26,30.02,12,2,16,0.00
2012-1-15,25.5,13.5,-0.5,18.1,7.7,-4.2,89,78,61,30.45,30.18,12,2,12,0.00
2012-1-16,46.1,36.3,20.8,44.5,31.5,16.5,94,83,72,30.18,29.69,15,3,17,0.00
2012-1-17,47.5,36.9,25.0,46.4,35.1,21.9,96,93,88,30.11,29.46,22,4,37,0.57
2012-1-18,25.5,23.0,18.2,23.0,17.5,14.4,90,79,69,30.28,29.95,13,3,15,0.00
2012-1-19,28.4,21.0,14.0,24.8,16.1,8.9,91,81,71,30.18,29.79,21,5,24,0.10
2012-1-20,17.6,11.0,1.9,13.2,7.5,-1.6,88,86,75,30.27,30.07,7,1,11,0.34
2012-1-21,28.1,16.5,5.9,15.7,10.3,2.9,88,77,55,30.27,30.07,8,2,12,0.00
2012-1-22,40.6,28.2,6.0,39.2,25.9,3.0,96,91,87,30.21,29.61,14,3,18,0.00
2012-1-23,46.8,39.1,31.2,45.2,36.1,24.7,100,89,75,29.87,29.40,30,7,32,0.50
2012-1-24,34.4,30.5,24.8,27.7,25.2,22.5,92,81,73,30.34,29.87,18,4,26,0.00
2012-1-25,33.4,29.7,22.4,29.9,26.4,20.2,92,88,80,30.36,30.10,9,1,11,0.00
2012-1-26,36.0,33.9,31.6,34.2,31.8,28.8,94,92,89,30.11,29.56,7,1,8,0.37
2012-1-27,43.6,36.5,30.5,34.8,31.1,26.6,95,82,58,29.97,29.57,16,3,20,0.00
2012-1-28,36.0,32.8,29.5,33.5,26.2,19.5,99,77,54,30.10,29.77,24,6,33,0.09
2012-1-29,32.7,29.0,19.3,29.4,22.8,14.7,91,78,69,30.24,29.92,30,4,30,0.08
2012-1-30,48.8,34.8,15.2,37.9,27.6,12.2,90,76,64,30.24,29.85,18,4,21,0.00
2012-1-31,56.5,51.7,46.4,50.2,43.0,36.7,92,73,61,29.90,29.78,21,6,24,0.04
2012-2-1,52.8,41.6,34.1,50.2,37.5,30.6,92,85,77,30.14,29.82,12,2,20,0.00
2012-2-2,44.5,35.9,27.9,37.1,32.0,25.6,93,86,74,30.39,30.12,8,1,9,0.00
2012-2-3,42.5,36.0,27.3,38.3,33.1,25.0,99,89,83,30.48,30.34,8,1,9,0.00
2012-2-4,42.3,36.6,30.8,36.0,32.4,28.0,93,85,71,30.35,30.14,10,1,11,0.08
2012-2-5,48.9,33.6,22.8,36.4,28.4,20.3,98,82,55,30.27,30.15,12,1,14,0.00
2012-2-6,32.5,30.3,25.2,30.2,28.2,22.9,94,92,90,30.23,30.17,9,4,14,0.00
2012-2-7,32.5,32.5,32.5,30.2,30.2,30.2,91,91,91,30.17,30.17,8,8,0,0.00
2012-2-8,37.1,31.4,23.8,30.2,24.2,19.9,91,75,59,30.34,30.17,11,4,18,0.00
2012-2-9,36.2,28.8,22.4,24.0,21.3,18.8,86,74,58,30.28,30.11,16,3,17,3.03
2012-2-10,35.0,30.3,15.8,31.8,25.2,10.7,92,81,73,30.12,29.83,19,4,23,0.03
2012-2-11,23.7,17.6,12.9,18.7,11.1,7.5,84,75,68,30.33,30.05,19,4,24,0.01
2012-2-12,34.4,25.8,19.2,19.4,15.8,12.5,80,66,49,30.29,30.20,19,4,24,0.00
2012-2-13,34.4,27.8,18.2,25.9,16.2,10.1,90,62,47,30.20,29.93,14,3,15,0.01
2012-2-14,34.4,31.5,28.3,30.1,28.3,25.8,92,88,83,30.03,29.83,9,2,10,0.07
2012-2-15,41.2,37.1,33.5,37.7,33.4,29.7,94,86,79,30.14,29.98,15,3,15,0.08
2012-2-16,46.3,39.6,29.7,39.9,35.9,27.4,95,87,70,30.09,29.91,16,3,22,0.04
2012-2-17,47.4,39.0,29.9,34.5,29.4,25.4,84,69,47,30.15,29.97,18,3,22,0.00
2012-2-18,41.8,34.3,24.2,34.3,26.0,19.9,85,72,50,30.20,29.97,22,4,23,0.00
2012-2-19,39.4,27.6,20.0,23.2,20.4,16.8,88,76,51,30.22,30.12,12,1,12,0.00
2012-2-20,43.4,29.9,17.3,29.1,23.0,14.4,91,76,55,30.34,29.99,11,1,12,0.00
2012-2-21,43.1,38.3,33.4,39.6,33.4,26.9,93,83,69,29.99,29.62,21,4,23,0.10
2012-2-22,39.2,35.2,30.4,34.4,32.0,28.9,94,88,74,29.68,29.41,12,1,14,0.29
2012-2-23,37.4,33.3,29.1,36.1,31.9,27.6,95,95,94,29.59,29.43,10,1,11,0.19
2012-2-24,36.2,33.3,28.6,33.8,31.1,23.8,95,92,81,29.86,29.30,22,4,25,0.34
2012-2-25,32.4,26.1,16.1,24.1,20.6,13.7,90,80,63,30.34,29.85,22,4,22,0.00
2012-2-26,45.4,30.1,12.7,33.2,22.7,10.1,92,75,58,30.36,30.05,18,4,21,0.00
2012-2-27,42.7,35.6,23.7,30.4,25.7,21.1,90,68,57,30.47,30.05,29,4,29,0.00
2012-2-28,46.2,33.8,21.2,34.3,27.0,18.7,92,77,56,30.49,29.94,12,2,14,0.00
2012-2-29,66.2,47.7,36.9,55.4,37.8,30.0,96,73,29,29.93,29.40,27,5,38,0.67
2012-3-1,39.6,37.2,30.6,34.3,32.3,28.3,92,82,78,29.84,29.57,20,3,23,0.00
2012-3-2,47.6,38.4,30.5,45.5,35.2,28.5,94,88,78,29.82,29.12,25,4,35,0.25
2012-3-3,36.4,32.7,29.6,33.9,27.0,24.1,92,80,69,29.79,29.49,32,6,37,0.03
2012-3-4,34.9,31.3,28.1,28.3,25.8,24.2,88,80,72,29.91,29.77,13,3,16,0.00
2012-3-5,36.2,29.0,23.3,25.6,21.0,16.6,92,72,52,30.36,29.91,14,3,16,0.00
2012-3-6,66.2,47.1,30.5,44.4,33.9,24.6,80,62,42,30.33,29.95,24,6,32,0.00
2012-3-7,66.8,58.4,49.0,49.7,42.5,33.1,66,56,48,30.06,29.82,30,8,33,0.00
2012-3-8,63.2,45.7,31.6,55.4,38.3,25.4,92,76,52,30.17,29.75,26,6,30,0.41
2012-3-9,37.4,33.3,24.7,28.6,21.0,16.7,74,60,48,30.54,30.15,23,6,30,0.00
2012-3-10,55.2,43.3,26.1,31.9,27.0,18.3,73,54,39,30.49,30.25,20,6,20,0.00
2012-3-11,67.9,48.3,29.1,41.3,34.0,26.4,91,62,33,30.31,30.10,12,2,15,0.00
2012-3-12,69.7,58.0,43.7,58.7,51.7,38.8,93,80,59,30.10,29.69,21,5,27,0.19
2012-3-13,65.8,55.4,38.9,51.7,42.5,30.1,89,67,27,30.07,29.83,21,2,21,0.00
2012-3-14,80.8,58.3,35.6,62.1,48.5,33.3,95,73,44,30.06,29.92,19,3,20,0.00
2012-3-15,81.3,70.9,61.6,66.0,61.5,58.0,91,73,54,29.97,29.88,16,3,19,0.00
2012-3-16,79.2,66.3,53.0,63.3,58.4,50.9,95,77,55,30.04,29.94,12,2,13,0.00
2012-3-17,77.9,63.8,48.2,61.5,55.4,46.3,98,76,52,30.10,29.97,14,3,23,0.00
2012-3-18,76.7,64.1,57.2,62.5,57.8,54.0,95,81,54,30.06,29.95,11,1,11,0.05
2012-3-19,79.7,64.9,51.7,65.4,58.8,50.3,97,82,56,30.01,29.92,14,2,18,0.04
2012-3-20,83.5,69.0,55.1,63.2,58.1,53.1,94,71,43,30.05,29.93,20,3,20,0.01
2012-3-21,86.0,67.7,52.3,62.0,57.1,50.9,96,73,41,30.10,29.98,12,2,15,0.00
2012-3-22,83.3,66.8,53.0,65.4,57.5,51.4,96,76,46,30.08,29.95,15,1,16,0.01
2012-3-23,67.2,60.9,50.3,63.9,58.6,48.4,96,92,82,29.99,29.75,10,1,12,0.62
2012-3-24,63.9,56.1,49.8,57.6,53.3,48.4,97,91,77,29.85,29.71,12,2,12,0.00
2012-3-25,72.1,57.6,45.5,57.3,50.3,39.0,92,78,57,30.05,29.84,19,4,19,0.00
2012-3-26,53.0,44.7,37.2,39.8,31.7,27.6,82,61,43,30.33,30.05,14,3,18,0.00
2012-3-27,61.6,47.5,33.3,44.2,31.9,21.1,75,56,40,30.31,29.81,20,4,24,0.00
2012-3-28,65.3,59.0,40.6,54.1,45.6,36.6,86,63,43,29.97,29.73,35,6,36,0.00
2012-3-29,59.3,45.3,33.6,41.0,36.3,31.8,94,73,46,30.11,29.97,11,1,11,0.00
2012-3-30,46.6,43.2,39.3,44.7,39.5,34.2,93,87,72,29.98,29.67,12,2,15,0.31
2012-3-31,52.1,42.3,36.7,42.7,37.9,34.0,93,85,68,29.98,29.85,8,2,10,0.00
2012-4-1,70.3,53.1,40.0,57.7,47.1,37.0,94,81,62,29.88,29.63,13,2,14,0.00
2012-4-2,64.3,52.2,42.7,46.3,41.8,37.0,86,69,46,29.95,29.74,14,2,21,0.00
2012-4-3,79.0,57.6,44.8,61.6,46.4,36.8,83,67,50,29.93,29.73,13,2,19,0.00
2012-4-4,67.0,54.2,38.2,47.6,40.0,33.6,91,62,32,29.92,29.80,14,3,16,0.00
2012-4-5,57.4,45.4,34.1,38.6,34.3,28.1,94,68,44,30.10,29.87,13,3,17,0.00
2012-4-6,62.2,44.3,30.3,37.8,30.6,23.6,90,62,33,30.28,30.10,11,1,13,0.00
2012-4-7,67.3,48.0,26.8,42.5,31.9,25.0,95,62,23,30.31,30.09,16,2,18,0.00
2012-4-8,62.7,54.7,46.0,46.5,37.3,28.9,88,56,30,30.18,30.03,26,6,26,0.02
2012-4-9,61.7,52.2,42.2,41.5,34.6,26.3,88,54,31,30.05,29.86,26,5,26,0.02
2012-4-10,43.4,37.6,28.5,29.8,25.1,22.1,81,61,52,30.09,29.93,19,5,26,0.00
2012-4-11,53.7,40.0,25.9,36.6,29.8,22.0,90,69,47,30.25,30.07,15,3,19,0.00
2012-4-12,62.6,42.9,24.9,40.4,32.3,22.9,95,71,36,30.28,30.13,14,2,19,0.00
2012-4-13,65.6,48.0,27.5,41.9,33.8,25.6,100,64,33,30.22,30.03,15,2,17,0.00
2012-4-14,63.2,56.8,44.2,57.0,49.7,37.1,92,78,52,30.04,29.84,14,2,14,0.07
2012-4-15,76.7,67.6,56.8,63.7,60.1,54.4,95,78,62,29.84,29.65,20,5,24,0.51
2012-4-16,69.4,58.1,46.8,61.8,49.8,40.3,93,74,58,30.15,29.54,28,7,32,0.45
2012-4-17,61.4,47.2,33.7,43.2,38.3,31.9,95,73,46,30.35,30.14,11,1,11,0.00
2012-4-18,69.1,51.4,31.4,48.2,40.3,29.8,100,70,44,30.29,29.94,14,3,21,0.00
2012-4-19,77.9,65.0,54.0,56.3,49.5,46.8,78,59,37,29.96,29.71,14,2,16,0.00
2012-4-20,66.5,53.4,40.6,53.8,45.7,39.0,100,77,54,29.89,29.61,16,5,20,0.27
2012-4-21,59.0,45.7,34.7,39.0,34.5,30.4,94,68,37,29.98,29.89,14,4,17,0.00
2012-4-22,54.7,44.6,36.7,36.3,31.4,24.0,83,61,42,30.01,29.95,20,4,21,0.00
2012-4-23,55.7,44.9,31.6,35.4,27.6,21.2,83,54,31,30.00,29.73,31,6,40,0.00
2012-4-24,62.2,48.6,37.3,39.9,32.0,25.9,86,55,31,29.73,29.66,22,3,24,0.00
2012-4-25,53.4,46.8,34.4,50.8,41.4,28.9,93,82,51,29.76,29.65,5,0,9,0.22
2012-4-26,57.1,49.1,38.7,51.9,41.7,24.8,95,77,43,30.12,29.57,25,5,26,0.00
2012-4-27,57.6,44.3,26.4,33.3,26.7,20.8,87,52,32,30.26,30.09,9,2,13,0.00
2012-4-28,49.2,44.8,39.9,42.0,37.9,31.4,91,77,54,30.20,30.04,13,2,15,0.31
2012-4-29,65.0,49.2,33.3,46.1,38.6,31.1,93,70,43,30.26,30.09,13,2,15,0.24
2012-4-30,63.6,53.7,43.2,61.5,51.0,39.7,95,91,81,30.10,29.83,12,1,12,0.85
2012-5-1,66.7,58.4,49.6,59.9,55.1,48.2,96,89,76,30.01,29.83,10,1,12,0.08
2012-5-2,82.5,69.1,56.9,68.8,62.6,55.5,97,82,58,29.90,29.78,20,3,24,0.00
2012-5-3,86.6,75.2,59.5,71.2,65.7,58.1,96,74,52,29.92,29.79,20,3,23,0.00
2012-5-4,84.9,71.3,59.6,68.0,63.1,55.9,92,76,53,29.90,29.76,16,2,19,0.01
2012-5-5,75.0,66.6,59.9,65.3,61.2,56.3,93,84,69,30.00,29.85,8,1,14,0.00
2012-5-6,78.0,65.6,53.6,60.2,53.8,40.0,94,68,45,30.02,29.80,12,1,12,0.00
2012-5-7,68.8,57.1,49.5,63.0,53.0,37.5,96,87,42,29.89,29.77,14,2,14,0.70
2012-5-8,70.4,58.0,48.8,57.5,50.2,45.7,96,78,46,29.84,29.78,14,2,18,0.00
2012-5-9,62.2,54.4,44.9,50.8,45.6,36.7,94,73,56,29.89,29.79,17,3,21,0.00
2012-5-10,66.2,53.1,39.4,44.3,39.3,35.3,94,63,34,30.01,29.88,13,2,15,0.00
2012-5-11,76.7,56.9,35.4,50.3,41.6,33.8,96,64,27,30.12,30.01,12,2,17,0.00
2012-5-12,68.8,61.3,53.2,57.6,52.9,46.2,86,74,55,30.18,30.09,11,2,14,0.00
2012-5-13,70.8,60.4,50.5,60.3,52.8,42.3,92,77,54,30.17,30.05,10,2,11,0.00
2012-5-14,78.1,61.5,46.0,58.1,46.9,40.6,93,64,31,30.07,29.96,11,1,13,0.00
2012-5-15,83.6,64.4,41.4,54.2,47.1,39.8,96,60,30,29.97,29.79,16,2,18,0.00
2012-5-16,69.5,60.1,45.4,56.8,44.0,36.1,93,58,35,30.08,29.78,14,4,18,0.04
2012-5-17,74.0,57.0,37.9,48.5,43.0,36.1,95,65,33,30.16,30.03,10,1,13,0.00
2012-5-18,83.5,62.6,42.0,55.1,46.7,39.8,93,62,29,30.09,29.95,9,1,11,0.00
2012-5-19,89.3,68.9,45.5,62.9,54.6,43.6,96,66,34,30.06,29.96,10,1,14,0.00
2012-5-20,91.7,75.1,57.3,67.1,59.8,53.1,89,63,34,30.05,29.87,18,2,22,0.01
2012-5-21,66.9,60.7,54.6,62.0,54.5,47.3,95,81,67,30.04,29.94,16,4,21,0.25
2012-5-22,74.8,59.3,44.3,56.0,47.9,42.1,93,68,45,30.02,29.88,12,2,14,0.00
2012-5-23,82.5,63.4,42.4,59.2,51.0,40.8,96,69,39,29.90,29.74,14,2,14,0.00
2012-5-24,87.5,74.9,57.5,64.5,57.2,51.6,95,58,32,29.81,29.60,21,4,22,0.00
2012-5-25,84.8,75.8,64.2,64.5,58.1,48.9,70,55,36,30.04,29.69,14,4,17,0.00
2012-5-26,90.2,72.5,60.1,69.3,58.3,46.8,91,62,45,30.15,29.97,12,2,13,0.05
2012-5-27,95.7,79.5,62.8,69.9,62.5,54.1,78,58,33,30.03,29.82,14,2,14,0.00
2012-5-28,92.9,81.7,67.0,68.8,64.4,59.1,85,58,37,29.83,29.65,21,4,21,0.00
2012-5-29,84.8,76.5,63.8,64.7,55.6,46.6,77,50,32,29.80,29.65,20,3,20,0.00
2012-5-30,72.0,61.2,48.1,54.4,49.2,45.4,95,67,47,29.90,29.77,17,3,20,0.00
2012-5-31,63.1,53.1,47.9,52.2,47.8,43.1,94,83,66,29.95,29.77,13,3,14,0.51
2012-6-1,54.4,50.6,48.6,50.3,48.0,44.3,95,91,78,29.79,29.66,18,4,23,0.39
2012-6-2,74.0,61.6,47.8,53.8,48.6,42.4,91,66,35,29.74,29.67,20,4,26,0.00
2012-6-3,78.7,67.1,56.7,59.2,53.3,47.0,88,65,35,29.78,29.73,20,3,21,0.00
2012-6-4,78.7,66.5,54.6,58.9,53.5,49.4,90,65,43,29.85,29.73,14,2,16,0.00
2012-6-5,73.5,61.4,49.0,55.2,50.5,47.3,95,70,44,29.97,29.85,13,2,14,0.00
2012-6-6,79.1,63.8,45.9,57.6,51.3,44.3,96,68,40,30.03,29.97,14,2,14,0.00
2012-6-7,82.0,65.4,47.6,59.4,52.1,46.0,96,67,36,30.08,30.01,13,2,16,0.00
2012-6-8,86.7,67.6,45.1,61.5,52.2,43.5,96,64,32,30.04,29.87,11,1,13,0.00
2012-6-9,88.7,74.5,58.1,61.1,56.5,52.3,87,57,34,29.92,29.82,14,2,19,0.00
2012-6-10,90.9,74.6,55.3,67.0,60.2,53.3,94,65,38,29.96,29.85,13,2,14,0.00
2012-6-11,86.0,74.7,61.8,70.9,66.0,59.4,94,76,57,29.86,29.73,14,2,17,0.02
2012-6-12,73.6,69.1,55.4,67.2,54.5,47.7,85,61,42,30.07,29.77,20,4,21,0.00
2012-6-13,77.0,60.6,44.6,57.1,47.4,43.0,95,66,32,30.17,30.06,8,1,14,0.00
2012-6-14,85.4,65.6,46.2,57.1,50.4,44.6,96,64,26,30.15,30.01,9,1,11,0.00
2012-6-15,91.1,71.5,52.7,63.6,56.4,48.8,95,64,32,30.09,30.00,10,1,11,0.00
2012-6-16,90.5,72.9,55.8,70.1,63.4,53.2,93,74,46,30.05,29.83,16,2,21,0.14
2012-6-17,83.4,72.6,63.6,69.9,64.0,55.9,95,77,41,29.86,29.77,29,3,29,0.29
2012-6-18,90.5,76.5,59.7,74.7,67.1,57.9,97,75,51,29.81,29.66,24,4,24,0.00
2012-6-19,91.8,82.9,75.7,74.4,68.9,64.6,79,63,50,29.94,29.81,18,4,18,0.00
2012-6-20,91.1,79.8,65.4,71.9,66.1,62.3,92,65,42,30.01,29.85,18,3,20,0.03
2012-6-21,86.6,73.8,60.7,72.0,65.5,58.9,94,76,58,29.89,29.82,17,3,21,0.00
2012-6-22,82.5,70.1,56.7,65.1,58.3,53.7,97,70,41,29.94,29.88,14,2,16,0.01
2012-6-23,85.7,70.6,53.7,63.8,57.8,52.0,95,68,36,29.99,29.93,11,1,12,0.00
2012-6-24,90.0,76.6,63.1,65.5,61.6,59.0,89,63,40,29.98,29.84,13,2,14,0.00
2012-6-25,79.6,70.0,59.0,62.7,55.5,49.3,89,62,36,30.00,29.87,15,3,17,0.00
2012-6-26,84.2,66.6,48.1,63.9,52.4,46.5,96,66,31,30.04,29.89,9,1,10,0.00
2012-6-27,89.7,71.8,51.1,60.4,55.0,49.4,95,61,31,29.97,29.76,18,2,18,0.00
2012-6-28,100.4,84.8,65.2,78.0,68.5,55.4,79,59,47,29.80,29.66,18,2,20,0.00
2012-6-29,87.5,76.9,65.5,72.7,67.6,58.5,94,75,45,29.94,29.67,24,1,30,0.13
2012-6-30,89.8,77.3,66.6,74.7,69.6,64.8,95,79,53,29.85,29.71,15,2,21,0.18
2012-7-1,91.2,76.6,65.0,75.7,68.5,63.5,97,78,48,29.94,29.80,23,1,24,0.00
2012-7-2,93.2,78.7,62.7,74.9,69.5,61.4,97,76,50,29.95,29.85,12,1,13,0.00
2012-7-3,94.7,84.3,75.2,75.4,70.7,64.2,92,65,48,29.88,29.75,13,2,17,0.00
2012-7-4,98.9,87.1,73.9,78.1,74.3,70.8,91,68,45,29.83,29.75,13,2,19,0.00
2012-7-5,99.5,87.2,72.1,75.6,72.5,68.4,94,65,37,29.87,29.80,14,2,18,0.00
2012-7-6,101.8,87.1,72.4,81.2,75.3,70.6,95,71,44,29.88,29.82,13,1,18,0.00
2012-7-7,99.7,86.8,74.5,77.4,73.9,68.0,93,68,44,29.90,29.83,14,3,24,0.00
2012-7-8,88.4,77.8,66.4,69.6,65.1,56.1,89,67,35,29.98,29.88,13,3,16,0.00
2012-7-9,90.2,74.6,58.0,66.1,61.1,56.4,96,67,40,30.00,29.92,14,2,19,0.00
2012-7-10,90.0,74.5,59.2,65.2,59.6,54.1,94,64,32,30.03,29.97,14,2,16,0.00
2012-7-11,90.8,72.5,57.8,69.4,58.2,54.8,94,66,32,30.09,30.01,10,1,12,0.00
2012-7-12,91.1,74.3,55.6,61.7,57.2,52.4,91,60,33,30.07,29.99,10,1,13,0.00
2012-7-13,93.0,76.9,62.5,72.7,64.5,57.5,92,68,40,30.04,29.93,11,1,14,0.00
2012-7-14,92.3,76.2,66.0,72.7,67.9,63.6,94,77,45,30.02,29.90,14,1,16,0.01
2012-7-15,91.5,78.5,66.0,74.1,68.3,64.5,96,74,47,30.01,29.91,15,2,18,0.00
2012-7-16,95.8,80.7,63.0,73.9,68.1,61.4,97,69,40,29.97,29.79,14,2,19,0.00
2012-7-17,99.3,85.9,70.4,76.3,71.9,68.0,93,65,43,29.80,29.70,14,2,16,0.00
2012-7-18,95.1,79.8,72.2,79.4,73.7,70.1,95,83,52,29.92,29.76,26,1,36,1.52
2012-7-19,82.4,73.7,68.9,75.0,71.0,67.7,97,91,75,29.92,29.79,12,1,15,1.77
2012-7-20,84.3,74.5,64.1,69.7,63.9,60.3,93,72,47,30.00,29.85,13,3,17,0.01
2012-7-21,86.3,72.9,59.1,70.2,64.3,57.6,96,77,48,30.06,29.96,11,1,13,0.00
2012-7-22,88.7,77.5,68.1,73.8,68.8,65.4,93,76,54,30.06,29.97,11,1,14,0.00
2012-7-23,94.4,82.5,70.9,77.2,72.3,67.9,92,73,54,29.98,29.80,12,3,17,0.51
2012-7-24,84.2,77.5,69.0,73.8,70.9,65.0,96,81,59,29.95,29.79,21,1,23,0.69
2012-7-25,90.8,77.4,67.3,81.3,70.1,62.1,94,79,65,29.90,29.56,13,2,15,0.00
2012-7-26,84.0,78.1,67.9,74.3,71.4,65.0,95,80,64,29.70,29.52,22,2,22,0.88
2012-7-27,83.8,73.0,63.4,73.2,67.4,62.1,97,84,60,29.88,29.68,17,2,17,0.05
2012-7-28,83.6,72.4,62.8,66.4,62.3,58.4,94,73,44,30.04,29.87,13,3,14,0.00
2012-7-29,86.8,70.9,55.3,66.5,60.1,52.1,97,73,36,30.07,29.93,9,1,9,0.00
2012-7-30,89.2,76.5,65.1,72.9,67.1,63.0,94,75,50,29.97,29.83,9,1,10,0.00
2012-7-31,85.9,74.5,63.8,72.8,66.7,61.1,94,78,58,29.95,29.80,18,3,23,0.59
2012-8-1,86.8,72.4,60.3,68.2,62.9,59.1,97,75,47,29.91,29.81,11,1,15,0.00
2012-8-2,89.8,73.6,59.6,75.0,66.0,58.2,97,79,53,29.85,29.76,9,1,9,0.00
2012-8-3,93.0,77.5,63.1,75.3,68.9,61.9,97,78,48,29.85,29.79,6,0,7,0.00
2012-8-4,88.8,74.8,65.8,79.0,70.6,64.6,97,88,68,29.88,29.72,27,2,29,1.07
2012-8-5,80.8,73.3,59.5,70.7,65.4,49.6,96,78,40,30.09,29.81,19,3,19,0.21
2012-8-6,81.6,66.9,51.7,63.4,57.8,50.3,97,76,46,30.13,29.96,8,1,9,0.00
2012-8-7,87.5,72.0,56.6,71.5,62.7,54.9,95,76,48,29.96,29.84,13,1,13,0.00
2012-8-8,88.0,74.3,62.5,70.8,65.7,61.3,97,77,50,29.91,29.85,10,1,12,0.00
2012-8-9,69.9,66.5,61.2,66.5,63.6,59.5,95,90,83,29.89,29.73,11,1,13,0.22
2012-8-10,83.7,58.3,57.0,61.1,51.6,-99.9,96,88,35,29.86,29.70,23,5,28,0.11
2012-8-11,75.3,66.3,58.8,64.2,59.4,55.9,93,79,62,29.94,29.82,20,4,22,0.00
2012-8-12,76.3,64.9,51.1,63.4,57.2,50.3,98,79,44,30.00,29.93,10,1,11,0.00
2012-8-13,67.8,63.7,61.1,64.8,61.8,59.7,97,93,84,29.96,29.88,6,0,7,0.60
2012-8-14,81.4,68.2,60.3,65.8,61.7,56.8,98,83,46,29.91,29.83,8,1,10,0.36
2012-8-15,84.5,70.4,58.4,69.4,63.5,57.7,98,81,53,29.91,29.85,9,1,12,0.00
2012-8-16,71.5,67.0,60.4,69.7,63.8,59.1,98,89,75,29.89,29.74,12,2,14,0.44
2012-8-17,75.7,64.8,51.5,64.0,56.8,49.8,98,78,48,29.96,29.82,12,2,15,0.00
2012-8-18,77.2,60.1,43.7,56.8,50.4,43.0,99,75,37,30.01,29.89,10,1,10,0.00
2012-8-19,78.8,63.9,50.2,60.3,53.1,48.6,98,73,39,29.93,29.85,11,1,12,0.00
2012-8-20,78.5,62.0,50.8,64.3,56.0,50.3,99,83,41,29.95,29.89,15,0,19,0.28
2012-8-21,80.3,64.1,49.2,61.2,53.9,47.9,98,74,35,30.06,29.95,10,1,11,0.00
2012-8-22,81.2,64.2,47.9,63.4,54.9,47.1,98,77,39,30.11,30.01,9,1,10,0.00
2012-8-23,86.2,69.0,52.8,69.0,59.1,52.0,98,75,38,30.09,30.00,9,1,10,0.00
2012-8-24,88.3,72.2,57.8,71.1,62.9,57.1,98,77,42,30.04,29.95,8,1,9,0.00
2012-8-25,91.1,73.2,58.2,71.9,63.8,57.4,98,77,36,30.03,29.96,6,0,8,0.00
2012-8-26,86.2,71.4,59.9,71.4,66.2,59.3,98,86,53,30.03,29.93,14,2,21,0.15
2012-8-27,83.9,73.9,61.4,73.1,66.5,56.5,98,81,43,30.00,29.89,14,2,20,0.71
2012-8-28,83.7,68.9,55.3,65.1,59.8,54.6,98,76,46,30.08,29.97,14,1,14,0.00
2012-8-29,83.8,67.5,54.2,66.1,59.6,53.6,98,79,43,30.06,29.96,6,0,7,0.00
2012-8-30,84.9,67.6,52.3,68.2,59.6,51.8,98,79,45,30.05,29.93,11,1,12,0.00
2012-8-31,91.2,72.3,57.4,73.9,63.3,-99.9,97,78,53,30.03,29.94,13,1,15,0.00
2012-9-1,80.1,74.4,69.4,74.8,71.5,68.2,98,91,82,30.01,29.90,8,0,13,0.00
2012-9-2,83.2,75.2,68.6,74.0,70.5,66.3,94,86,70,29.93,29.81,12,1,16,0.00
2012-9-3,91.3,77.8,65.4,75.3,70.2,63.9,97,79,55,29.86,29.77,11,1,13,0.00
2012-9-4,88.0,75.4,66.6,73.9,69.7,65.4,98,84,57,29.84,29.77,10,1,10,0.02
2012-9-5,80.6,71.0,63.7,70.6,66.6,62.5,98,87,66,29.86,29.71,15,1,18,0.24
2012-9-6,85.0,72.8,59.1,71.0,63.0,52.9,98,76,35,29.86,29.76,13,1,14,0.00
2012-9-7,83.3,65.4,55.2,69.2,61.0,54.3,100,87,49,29.87,29.65,11,1,17,0.14
2012-9-8,70.8,61.0,51.9,57.6,53.7,49.2,95,79,50,29.81,29.69,16,3,21,0.01
2012-9-9,75.1,61.0,49.6,60.0,53.2,48.4,98,78,46,30.07,29.80,17,2,17,0.17
2012-9-10,78.2,59.2,44.0,56.4,48.9,43.2,98,74,33,30.19,30.07,7,0,8,0.00
2012-9-11,81.3,62.7,47.1,59.5,52.9,46.3,98,75,38,30.16,30.06,14,2,19,0.00
2012-9-12,84.2,65.6,49.3,62.2,55.5,48.5,98,75,38,30.16,30.07,13,2,15,0.00
2012-9-13,81.3,68.4,58.2,63.4,59.4,55.3,93,74,48,30.21,30.10,13,2,16,0.01
2012-9-14,74.0,59.9,47.4,56.1,50.9,40.9,97,77,33,30.28,30.21,12,2,13,0.30
2012-9-15,79.0,57.9,42.9,56.8,48.3,42.1,98,76,32,30.29,30.11,8,1,9,0.00
2012-9-16,78.5,58.9,43.1,58.2,49.2,42.3,98,76,31,30.12,29.95,10,1,13,0.00
2012-9-17,76.2,61.4,47.9,61.8,55.1,47.1,100,82,55,29.97,29.66,11,1,12,0.00
2012-9-18,65.5,56.0,43.8,60.8,49.7,35.9,96,81,42,29.98,29.64,20,3,26,0.30
2012-9-19,68.9,54.3,36.4,44.7,40.4,35.4,98,65,34,30.08,29.88,15,3,19,0.00
2012-9-20,71.3,60.5,47.0,53.7,46.4,40.9,95,62,36,29.90,29.82,21,3,21,0.00
2012-9-21,68.3,52.6,42.3,53.5,45.9,38.1,98,82,35,29.90,29.75,12,1,14,0.11
2012-9-22,56.7,50.0,46.0,50.2,46.5,42.6,97,88,67,30.10,29.73,19,2,24,0.20
2012-9-23,59.2,47.5,35.7,42.8,38.6,34.3,100,74,43,30.22,30.08,17,2,21,0.00
2012-9-24,67.8,50.9,35.5,42.7,36.4,29.4,97,64,24,30.22,29.91,18,2,19,0.00
2012-9-25,72.2,58.8,43.8,61.1,50.5,38.9,96,75,52,29.92,29.81,12,2,15,0.00
2012-9-26,74.0,63.7,52.6,64.3,57.5,48.1,98,82,51,30.09,29.82,12,1,12,0.00
2012-9-27,74.2,58.1,45.3,58.6,51.1,44.0,97,79,56,30.14,30.06,8,0,12,0.00
2012-9-28,70.6,56.2,45.3,54.6,50.1,44.4,98,82,51,30.10,30.03,11,1,13,0.00
2012-9-29,74.2,55.1,39.3,55.4,45.4,38.5,100,75,33,30.08,29.92,12,1,15,0.00
2012-9-30,70.5,53.3,38.3,52.4,44.7,37.4,98,77,36,29.93,29.87,11,1,13,0.00
2012-10-1,66.3,51.9,37.1,51.6,45.4,36.3,100,81,51,29.91,29.78,12,0,12,0.00
2012-10-2,67.6,59.7,52.5,55.2,50.8,46.4,87,73,55,29.85,29.76,14,2,18,0.00
2012-10-3,60.8,58.7,56.3,58.2,56.3,55.1,97,92,83,30.00,29.84,10,2,12,0.05
2012-10-4,79.6,64.3,52.5,58.8,54.7,51.1,97,75,39,30.06,29.94,17,2,22,0.05
2012-10-5,57.9,48.8,41.5,53.4,44.3,37.6,91,85,64,30.08,29.99,10,2,12,0.10
2012-10-6,46.0,41.5,34.2,37.7,34.3,30.4,88,76,63,30.12,29.98,13,1,15,0.00
2012-10-7,46.2,41.8,34.6,41.8,38.2,32.8,95,87,72,30.14,30.08,9,1,13,0.15
2012-10-8,56.6,41.4,29.7,34.6,30.4,26.9,99,70,33,30.19,30.05,12,2,16,0.00
2012-10-9,63.4,50.1,34.3,42.2,37.3,30.7,92,63,41,30.07,29.80,21,4,23,0.00
2012-10-10,55.1,43.8,34.1,46.3,36.2,27.9,94,77,44,30.16,29.82,20,3,28,0.25
2012-10-11,64.1,47.6,31.2,44.5,33.8,29.3,95,63,33,30.17,30.04,19,3,25,0.00
2012-10-12,56.2,44.1,29.9,42.7,33.9,25.5,96,71,33,30.42,30.17,13,2,14,0.01
2012-10-13,64.9,49.4,29.5,62.5,45.5,27.9,97,87,64,30.31,29.83,14,2,16,0.42
2012-10-14,73.1,63.9,50.0,63.5,59.4,48.4,96,86,56,29.83,29.40,33,6,33,0.68
2012-10-15,54.1,47.3,35.2,48.6,43.2,34.1,99,86,63,29.95,29.65,16,2,20,0.05
2012-10-16,64.4,47.4,30.3,48.6,39.4,29.6,98,77,49,29.96,29.62,14,2,18,0.01
2012-10-17,72.2,61.3,54.7,55.2,51.4,47.7,94,72,46,29.62,29.37,22,5,32,0.33
2012-10-18,57.8,51.8,43.9,55.2,44.2,30.8,95,78,39,29.58,29.27,22,5,26,0.90
2012-10-19,49.2,45.5,43.1,47.3,43.9,41.2,100,94,88,29.58,29.45,13,1,13,0.75
2012-10-20,56.3,48.1,42.7,47.2,43.2,40.3,96,84,60,29.90,29.58,14,2,17,0.06
2012-10-21,65.4,47.8,32.6,51.2,42.5,31.6,99,84,56,30.07,29.90,9,1,12,0.00
2012-10-22,68.4,55.5,43.0,60.2,52.1,42.2,98,89,66,30.01,29.87,13,1,13,0.04
2012-10-23,68.1,62.5,56.7,62.0,58.5,54.8,96,87,76,29.93,29.86,15,1,19,0.00
2012-10-24,78.5,66.4,55.1,63.7,59.5,53.7,97,80,58,29.95,29.86,13,2,15,0.00
2012-10-25,77.5,67.6,53.7,61.7,58.0,49.5,93,72,56,29.88,29.71,21,6,26,0.00
2012-10-26,53.5,45.2,39.1,49.7,37.9,33.8,94,76,56,30.24,29.87,19,5,21,0.29
2012-10-27,52.9,42.1,33.5,37.1,32.9,30.0,88,72,45,30.25,30.14,15,4,19,0.00
2012-10-28,48.9,40.5,32.9,34.2,30.8,26.6,92,70,53,30.23,30.15,15,3,18,0.00
2012-10-29,49.2,41.5,34.5,32.8,28.1,24.4,77,60,40,30.18,29.88,28,7,30,0.00
2012-10-30,43.1,40.7,39.2,38.2,34.3,25.4,92,79,52,29.88,29.60,34,10,34,0.20
2012-10-31,43.4,40.7,38.7,40.5,37.1,34.7,98,87,80,29.77,29.64,21,6,24,0.03
2012-11-1,51.6,40.9,28.8,38.6,31.4,23.8,97,72,38,29.84,29.75,19,2,25,0.00
2012-11-2,48.4,39.4,29.9,35.9,32.4,28.3,96,77,53,30.10,29.82,15,2,19,0.00
2012-11-3,44.4,34.3,24.8,33.7,29.4,23.6,97,83,63,30.21,30.10,7,1,8,0.00
2012-11-4,45.6,35.0,25.3,32.6,29.6,23.8,96,82,56,30.21,30.15,13,1,16,0.00
2012-11-5,47.5,30.5,18.2,33.5,25.3,16.5,97,83,49,30.21,30.12,7,0,7,0.00
2012-11-6,46.7,33.6,18.9,35.2,27.8,17.2,97,81,57,30.13,29.92,10,1,12,0.01
2012-11-7,52.6,39.7,28.7,35.8,32.7,27.4,95,78,49,30.13,29.91,10,1,12,0.00
2012-11-8,46.5,35.3,23.2,40.2,31.6,21.7,98,87,69,30.21,30.12,11,1,12,0.00
2012-11-9,59.5,44.2,26.7,45.7,37.2,25.6,98,79,54,30.15,30.00,12,2,15,0.00
2012-11-10,67.7,59.2,51.6,53.7,47.0,42.5,76,64,55,30.03,29.91,18,5,21,0.00
2012-11-11,68.8,61.3,54.1,52.4,48.1,44.9,72,62,54,30.00,29.82,33,8,37,0.00
2012-11-12,60.1,39.0,31.9,52.8,31.6,21.7,94,76,55,30.29,29.85,25,4,25,0.33
2012-11-13,42.5,32.3,23.1,26.5,22.7,20.2,94,69,44,30.51,30.29,15,2,16,0.00
2012-11-14,43.7,29.6,20.4,29.7,24.8,18.7,97,84,54,30.56,30.41,10,0,10,0.00
2012-11-15,47.3,30.5,19.6,34.0,25.8,17.8,97,85,53,30.42,30.32,6,0,7,0.01
2012-11-16,55.4,33.5,20.4,37.8,26.9,18.9,98,81,39,30.48,30.37,5,0,6,0.00
2012-11-17,56.4,34.7,21.6,38.5,28.7,20.1,98,82,45,30.57,30.48,7,0,8,0.01
2012-11-18,59.1,37.7,25.3,39.4,30.7,24.1,98,80,36,30.49,30.36,9,0,10,0.00
2012-11-19,58.3,41.1,28.1,40.0,34.1,26.9,97,79,45,30.36,30.12,7,0,8,0.00
2012-11-20,53.2,47.4,43.8,45.4,42.5,38.8,95,84,68,30.14,30.04,8,0,9,0.01
2012-11-21,56.6,41.3,34.9,48.0,39.0,33.8,98,92,71,30.24,30.12,7,0,7,0.01
2012-11-22,60.4,48.1,33.3,48.9,41.3,32.5,98,80,56,30.13,29.78,18,4,22,0.01
2012-11-23,54.0,37.2,31.9,49.4,29.2,21.2,86,73,64,30.11,29.76,28,7,34,0.01
2012-11-24,32.4,30.3,26.8,25.1,22.9,19.5,77,74,69,30.19,30.03,23,3,24,0.00
2012-11-25,44.4,32.6,26.6,29.8,25.4,21.5,93,76,54,30.04,29.84,14,2,16,0.00
2012-11-26,39.2,31.8,22.9,31.4,25.2,21.4,97,78,55,30.30,30.01,11,1,12,0.00
2012-11-27,39.1,31.4,24.9,25.6,21.7,14.7,82,67,51,30.38,30.25,10,1,11,0.00
2012-11-28,43.1,31.3,23.8,29.7,21.6,14.9,90,68,50,30.35,30.24,18,1,18,0.00
2012-11-29,49.7,36.6,24.6,34.8,28.6,22.1,92,74,49,30.31,30.13,13,1,14,0.00
2012-11-30,52.0,39.8,29.4,36.1,32.4,27.6,94,76,52,30.14,30.04,8,0,10,0.00
2012-12-1,59.3,44.7,27.3,51.3,39.6,26.1,98,84,68,30.17,29.94,20,3,22,0.00
2012-12-2,58.9,55.0,45.9,55.3,51.0,44.6,97,87,68,30.04,29.88,13,2,19,0.20
2012-12-3,64.3,58.3,45.1,60.8,55.9,43.9,98,92,78,30.03,29.82,19,4,23,0.02
2012-12-4,64.4,50.5,39.0,58.2,43.9,34.0,96,79,49,30.17,29.85,20,3,23,0.71
2012-12-5,43.1,33.2,24.5,34.7,26.2,22.9,95,76,54,30.40,30.17,12,2,14,0.00
2012-12-6,41.2,34.5,25.2,37.2,30.2,23.2,99,84,76,30.27,29.90,11,2,11,0.00
2012-12-7,46.3,43.1,40.1,43.9,41.0,37.1,97,92,86,29.94,29.83,7,0,8,0.14
2012-12-8,43.1,39.4,33.8,42.3,37.5,30.3,97,93,86,30.10,29.78,12,2,12,0.09
2012-12-9,42.9,37.6,33.6,42.4,35.8,30.2,100,93,87,30.11,29.66,11,1,14,0.15
2012-12-10,41.8,34.5,31.4,40.5,32.4,28.9,98,92,86,29.89,29.65,18,3,21,0.02
2012-12-11,34.2,30.6,26.8,30.6,25.5,22.0,95,81,62,30.16,29.88,15,3,18,0.06
2012-12-12,43.1,31.8,23.1,30.0,25.7,20.9,93,79,54,30.34,30.15,13,2,13,0.00
2012-12-13,46.1,35.7,24.5,31.3,27.3,22.0,92,72,54,30.33,30.13,14,3,16,0.00
2012-12-14,49.0,36.1,25.8,35.4,29.4,23.5,92,78,56,30.23,30.09,7,1,9,0.00
2012-12-15,50.0,41.9,32.4,48.3,38.8,30.1,95,89,73,30.09,29.60,16,3,17,0.09
2012-12-16,50.9,46.3,40.3,48.8,43.7,36.5,94,91,86,29.68,29.57,13,3,16,0.00
2012-12-17,43.2,39.7,38.1,36.8,35.6,33.8,90,85,76,29.70,29.61,9,1,12,0.00
2012-12-18,42.0,36.5,31.3,37.8,32.8,28.1,92,86,80,29.78,29.63,12,2,14,0.00
2012-12-19,43.4,40.8,37.4,39.0,36.9,35.1,93,86,80,30.04,29.69,12,1,12,0.00
2012-12-20,50.2,41.2,33.9,48.5,38.5,32.0,96,90,76,29.90,29.05,24,4,33,1.01
2012-12-21,35.8,33.7,32.6,34.0,29.5,25.6,95,84,75,30.04,29.14,34,10,38,0.58
2012-12-22,32.6,28.2,22.1,26.5,23.3,19.5,98,82,72,30.17,30.00,18,3,23,0.00
2012-12-23,38.1,27.1,16.8,29.0,22.5,14.6,91,83,64,30.02,29.90,10,1,10,0.00
2012-12-24,36.5,29.9,24.6,29.2,25.4,21.8,90,83,73,30.04,29.80,8,2,12,0.00
2012-12-25,36.2,28.6,19.4,25.7,22.2,16.6,92,77,60,30.28,30.03,15,3,15,0.00
2012-12-26,29.7,28.3,24.8,27.4,24.2,20.4,93,85,73,30.22,29.87,20,6,23,0.19
2012-12-27,38.4,29.2,24.3,27.3,23.6,20.1,92,80,64,30.16,30.01,13,2,18,0.00
2012-12-28,31.7,29.4,25.6,28.9,26.2,23.1,93,88,83,30.15,29.88,8,0,9,0.09
2012-12-29,35.0,30.4,27.7,29.0,27.2,24.3,95,88,78,30.15,29.83,14,2,18,0.21
2012-12-30,27.7,22.9,16.8,24.5,18.3,13.4,88,82,70,30.37,30.14,15,3,18,0.00
2012-12-31,36.1,31.1,24.9,30.1,25.2,20.2,89,79,70,30.18,29.97,19,4,21,0.00
2013-1-1,33.3,26.5,12.9,24.0,19.4,10.2,89,75,59,30.15,30.05,12,2,13,0.00